PWSweather.com
Personal Weather Stations
Station Observations
UXOLA
Alcoy, AlcoyES

AlcoyAlcoyES

Lat: 38.70299, Lon: -0.48184

Elevation: 1935

Station Type: PCE FWS-20,

http://www.fiestasalcoy.xyz

High Low Average
Temperature 63.1°F17.3°F 47.1°F8.4°F 53.6°F12.0°F
Dew Point 46.3°F7.9°F 40.5°F4.7°F 42.9°F6.1°F
Winds 9.2 mph NE14.8 mph NE Calm Calm 3.6 mph 5.8 mph
Wind Gusts 13.6 mph21.9 mph 0.7 mph1.1 mph 6.9 mph11.1 mph
Humidity 80% 49% 68%
Pressure 30.01 in1016.30 in 29.88 in1011.90 in -
Precipitation 0.00 in0.00 in - -
Hour Temp Dew Point Humidity Winds Wind Gusts Pressure Precip Precip Rate Daily Precip Total
12:00 AM 48.9°F9.4°C 42.0°F5.6°C 77% 0.7 mph SW1.1 kmh SW 1.6 mph2.6 kmh 29.98 in1015.2 mb 0.00 in0.0 mm 0.00 in0.0 mm 0.00 in0.0 mm
12:15 AM 48.9°F9.4°C 41.7°F5.4°C 76% Calm Calm 2.2 mph3.5 kmh 29.97 in1014.9 mb 0.00 in0.0 mm 0.00 in0.0 mm 0.00 in0.0 mm
12:30 AM 48.9°F9.4°C 41.7°F5.4°C 76% Calm Calm 3.1 mph5.0 kmh 29.98 in1015.2 mb 0.00 in0.0 mm 0.00 in0.0 mm 0.00 in0.0 mm
12:45 AM 48.9°F9.4°C 41.7°F5.4°C 76% 1.6 mph SSW2.6 kmh SSW 2.2 mph3.5 kmh 29.97 in1014.9 mb 0.00 in0.0 mm 0.00 in0.0 mm 0.00 in0.0 mm
01:00 AM 48.9°F9.4°C 42.0°F5.6°C 77% Calm Calm 3.1 mph5.0 kmh 29.97 in1014.9 mb 0.00 in0.0 mm 0.00 in0.0 mm 0.00 in0.0 mm
01:15 AM 48.7°F9.3°C 41.9°F5.5°C 77% 2.2 mph SW3.5 kmh SW 3.8 mph6.1 kmh 29.97 in1014.9 mb 0.00 in0.0 mm 0.00 in0.0 mm 0.00 in0.0 mm
01:30 AM 49.1°F9.5°C 42.2°F5.7°C 77% 1.6 mph SW2.6 kmh SW 2.2 mph3.5 kmh 29.96 in1014.6 mb 0.00 in0.0 mm 0.00 in0.0 mm 0.00 in0.0 mm
01:45 AM 48.6°F9.2°C 41.7°F5.4°C 77% 1.6 mph SW2.6 kmh SW 3.1 mph5.0 kmh 29.96 in1014.6 mb 0.00 in0.0 mm 0.00 in0.0 mm 0.00 in0.0 mm
02:00 AM 48.7°F9.3°C 42.2°F5.7°C 78% 1.6 mph SW2.6 kmh SW 3.8 mph6.1 kmh 29.96 in1014.6 mb 0.00 in0.0 mm 0.00 in0.0 mm 0.00 in0.0 mm
02:15 AM 48.4°F9.1°C 41.5°F5.3°C 77% Calm Calm 2.2 mph3.5 kmh 29.95 in1014.2 mb 0.00 in0.0 mm 0.00 in0.0 mm 0.00 in0.0 mm
02:30 AM 47.7°F8.7°C 40.8°F4.9°C 77% Calm Calm 1.6 mph2.6 kmh 29.95 in1014.2 mb 0.00 in0.0 mm 0.00 in0.0 mm 0.00 in0.0 mm
02:45 AM 47.3°F8.5°C 40.5°F4.7°C 77% Calm Calm 0.7 mph1.1 kmh 29.95 in1014.2 mb 0.00 in0.0 mm 0.00 in0.0 mm 0.00 in0.0 mm
03:00 AM 47.1°F8.4°C 40.6°F4.8°C 78% Calm Calm 2.2 mph3.5 kmh 29.95 in1014.2 mb 0.00 in0.0 mm 0.00 in0.0 mm 0.00 in0.0 mm
03:15 AM 47.1°F8.4°C 40.9°F4.9°C 79% 0.7 mph SW1.1 kmh SW 3.1 mph5.0 kmh 29.95 in1014.2 mb 0.00 in0.0 mm 0.00 in0.0 mm 0.00 in0.0 mm
03:30 AM 47.3°F8.5°C 41.1°F5.1°C 79% 1.6 mph SSW2.6 kmh SSW 3.1 mph5.0 kmh 29.94 in1013.9 mb 0.00 in0.0 mm 0.00 in0.0 mm 0.00 in0.0 mm
03:45 AM 47.3°F8.5°C 41.4°F5.2°C 80% Calm Calm 1.6 mph2.6 kmh 29.93 in1013.5 mb 0.00 in0.0 mm 0.00 in0.0 mm 0.00 in0.0 mm
04:00 AM 47.3°F8.5°C 41.4°F5.2°C 80% 2.2 mph SW3.5 kmh SW 3.1 mph5.0 kmh 29.93 in1013.5 mb 0.00 in0.0 mm 0.00 in0.0 mm 0.00 in0.0 mm
04:15 AM 48.0°F8.9°C 42.2°F5.7°C 80% Calm Calm 4.5 mph7.2 kmh 29.93 in1013.5 mb 0.00 in0.0 mm 0.00 in0.0 mm 0.00 in0.0 mm
04:30 AM 49.5°F9.7°C 43.6°F6.4°C 80% 3.8 mph WSW6.1 kmh WSW 5.4 mph8.7 kmh 29.93 in1013.5 mb 0.00 in0.0 mm 0.00 in0.0 mm 0.00 in0.0 mm
04:45 AM 49.6°F9.8°C 42.7°F5.9°C 77% Calm Calm 3.8 mph6.1 kmh 29.93 in1013.5 mb 0.00 in0.0 mm 0.00 in0.0 mm 0.00 in0.0 mm
05:00 AM 48.4°F9.1°C 41.2°F5.1°C 76% 1.6 mph SW2.6 kmh SW 3.1 mph5.0 kmh 29.92 in1013.2 mb 0.00 in0.0 mm 0.00 in0.0 mm 0.00 in0.0 mm
05:15 AM 48.9°F9.4°C 42.4°F5.8°C 78% 3.8 mph WSW6.1 kmh WSW 5.4 mph8.7 kmh 29.93 in1013.5 mb 0.00 in0.0 mm 0.00 in0.0 mm 0.00 in0.0 mm
05:30 AM 49.5°F9.7°C 42.2°F5.7°C 76% 7.6 mph WSW12.2 kmh WSW 11.4 mph18.3 kmh 29.92 in1013.2 mb 0.00 in0.0 mm 0.00 in0.0 mm 0.00 in0.0 mm
05:45 AM 50.0°F10.0°C 42.0°F5.6°C 74% 6.9 mph WSW11.1 kmh WSW 9.2 mph14.8 kmh 29.92 in1013.2 mb 0.00 in0.0 mm 0.00 in0.0 mm 0.00 in0.0 mm
06:00 AM 50.4°F10.2°C 42.0°F5.6°C 73% 6.9 mph W11.1 kmh W 11.4 mph18.3 kmh 29.92 in1013.2 mb 0.00 in0.0 mm 0.00 in0.0 mm 0.00 in0.0 mm
06:15 AM 50.5°F10.3°C 42.6°F5.9°C 74% 3.1 mph WSW5.0 kmh WSW 9.8 mph15.8 kmh 29.92 in1013.2 mb 0.00 in0.0 mm 0.00 in0.0 mm 0.00 in0.0 mm
06:30 AM 49.8°F9.9°C 41.9°F5.5°C 74% 3.8 mph W6.1 kmh W 6.9 mph11.1 kmh 29.92 in1013.2 mb 0.00 in0.0 mm 0.00 in0.0 mm 0.00 in0.0 mm
06:45 AM 50.0°F10.0°C 41.7°F5.4°C 73% 1.6 mph W2.6 kmh W 8.3 mph13.4 kmh 29.92 in1013.2 mb 0.00 in0.0 mm 0.00 in0.0 mm 0.00 in0.0 mm
07:00 AM 49.3°F9.6°C 41.0°F5.0°C 73% 5.4 mph NE8.7 kmh NE 6.9 mph11.1 kmh 29.92 in1013.2 mb 0.00 in0.0 mm 0.00 in0.0 mm 0.00 in0.0 mm
07:15 AM 48.9°F9.4°C 41.0°F5.0°C 74% 0.7 mph E1.1 kmh E 5.4 mph8.7 kmh 29.93 in1013.5 mb 0.00 in0.0 mm 0.00 in0.0 mm 0.00 in0.0 mm
07:30 AM 48.7°F9.3°C 41.2°F5.1°C 75% 2.2 mph E3.5 kmh E 5.4 mph8.7 kmh 29.93 in1013.5 mb 0.00 in0.0 mm 0.00 in0.0 mm 0.00 in0.0 mm
07:45 AM 48.6°F9.2°C 41.0°F5.0°C 75% 1.6 mph ENE2.6 kmh ENE 6.0 mph9.7 kmh 29.93 in1013.5 mb 0.00 in0.0 mm 0.00 in0.0 mm 0.00 in0.0 mm
08:00 AM 48.6°F9.2°C 41.0°F5.0°C 75% 0.7 mph SSW1.1 kmh SSW 3.8 mph6.1 kmh 29.93 in1013.5 mb 0.00 in0.0 mm 0.00 in0.0 mm 0.00 in0.0 mm
08:15 AM 48.6°F9.2°C 41.0°F5.0°C 75% 0.7 mph ENE1.1 kmh ENE 3.8 mph6.1 kmh 29.94 in1013.9 mb 0.00 in0.0 mm 0.00 in0.0 mm 0.00 in0.0 mm
08:30 AM 48.6°F9.2°C 41.0°F5.0°C 75% 3.8 mph W6.1 kmh W 5.4 mph8.7 kmh 29.94 in1013.9 mb 0.00 in0.0 mm 0.00 in0.0 mm 0.00 in0.0 mm
08:45 AM 49.6°F9.8°C 41.7°F5.4°C 74% 6.0 mph W9.7 kmh W 9.2 mph14.8 kmh 29.94 in1013.9 mb 0.00 in0.0 mm 0.00 in0.0 mm 0.00 in0.0 mm
09:00 AM 49.8°F9.9°C 41.5°F5.3°C 73% 6.0 mph WSW9.7 kmh WSW 8.3 mph13.4 kmh 29.94 in1013.9 mb 0.00 in0.0 mm 0.00 in0.0 mm 0.00 in0.0 mm
09:15 AM 50.5°F10.3°C 42.2°F5.7°C 73% 5.4 mph WSW8.7 kmh WSW 8.3 mph13.4 kmh 29.94 in1013.9 mb 0.00 in0.0 mm 0.00 in0.0 mm 0.00 in0.0 mm
09:30 AM 51.1°F10.6°C 42.7°F5.9°C 73% 3.8 mph WSW6.1 kmh WSW 6.9 mph11.1 kmh 29.94 in1013.9 mb 0.00 in0.0 mm 0.00 in0.0 mm 0.00 in0.0 mm
09:45 AM 52.3°F11.3°C 43.6°F6.4°C 72% 3.8 mph W6.1 kmh W 8.3 mph13.4 kmh 29.94 in1013.9 mb 0.00 in0.0 mm 0.00 in0.0 mm 0.00 in0.0 mm
10:00 AM 52.9°F11.6°C 43.7°F6.5°C 71% 7.6 mph W12.2 kmh W 9.8 mph15.8 kmh 29.94 in1013.9 mb 0.00 in0.0 mm 0.00 in0.0 mm 0.00 in0.0 mm
10:15 AM 53.6°F12.0°C 42.9°F6.1°C 67% 3.8 mph SW6.1 kmh SW 11.4 mph18.3 kmh 29.94 in1013.9 mb 0.00 in0.0 mm 0.00 in0.0 mm 0.00 in0.0 mm
10:30 AM 54.9°F12.7°C 43.7°F6.5°C 66% 3.8 mph WSW6.1 kmh WSW 9.2 mph14.8 kmh 29.94 in1013.9 mb 0.00 in0.0 mm 0.00 in0.0 mm 0.00 in0.0 mm
10:45 AM 56.1°F13.4°C 44.1°F6.7°C 64% 4.5 mph W7.2 kmh W 6.0 mph9.7 kmh 29.94 in1013.9 mb 0.00 in0.0 mm 0.00 in0.0 mm 0.00 in0.0 mm
11:00 AM 56.5°F13.6°C 43.6°F6.4°C 62% 4.5 mph SW7.2 kmh SW 12.1 mph19.5 kmh 29.94 in1013.9 mb 0.00 in0.0 mm 0.00 in0.0 mm 0.00 in0.0 mm
11:15 AM 57.6°F14.2°C 44.7°F7.1°C 62% 4.5 mph SW7.2 kmh SW 6.9 mph11.1 kmh 29.94 in1013.9 mb 0.00 in0.0 mm 0.00 in0.0 mm 0.00 in0.0 mm
11:30 AM 57.9°F14.4°C 44.6°F7.0°C 61% 4.5 mph SW7.2 kmh SW 10.7 mph17.2 kmh 29.93 in1013.5 mb 0.00 in0.0 mm 0.00 in0.0 mm 0.00 in0.0 mm
11:45 AM 58.5°F14.7°C 45.1°F7.3°C 61% 4.5 mph SW7.2 kmh SW 8.3 mph13.4 kmh 29.93 in1013.5 mb 0.00 in0.0 mm 0.00 in0.0 mm 0.00 in0.0 mm
12:00 PM 59.0°F15.0°C 45.1°F7.3°C 60% 7.6 mph SW12.2 kmh SW 9.2 mph14.8 kmh 29.93 in1013.5 mb 0.00 in0.0 mm 0.00 in0.0 mm 0.00 in0.0 mm
12:15 PM 59.9°F15.5°C 45.6°F7.6°C 59% 3.8 mph SW6.1 kmh SW 9.2 mph14.8 kmh 29.93 in1013.5 mb 0.00 in0.0 mm 0.00 in0.0 mm 0.00 in0.0 mm
12:30 PM 60.6°F15.9°C 44.9°F7.2°C 56% 3.8 mph WNW6.1 kmh WNW 8.3 mph13.4 kmh 29.93 in1013.5 mb 0.00 in0.0 mm 0.00 in0.0 mm 0.00 in0.0 mm
12:45 PM 61.2°F16.2°C 45.8°F7.7°C 57% 3.8 mph SSW6.1 kmh SSW 5.4 mph8.7 kmh 29.92 in1013.2 mb 0.00 in0.0 mm 0.00 in0.0 mm 0.00 in0.0 mm
01:00 PM 61.2°F16.2°C 45.4°F7.4°C 56% 6.9 mph NE11.1 kmh NE 9.8 mph15.8 kmh 29.91 in1012.9 mb 0.00 in0.0 mm 0.00 in0.0 mm 0.00 in0.0 mm
01:15 PM 61.7°F16.5°C 46.3°F7.9°C 57% 4.5 mph ENE7.2 kmh ENE 8.3 mph13.4 kmh 29.91 in1012.9 mb 0.00 in0.0 mm 0.00 in0.0 mm 0.00 in0.0 mm
01:30 PM 62.2°F16.8°C 44.4°F6.9°C 52% 4.5 mph ENE7.2 kmh ENE 9.2 mph14.8 kmh 29.91 in1012.9 mb 0.00 in0.0 mm 0.00 in0.0 mm 0.00 in0.0 mm
01:45 PM 62.2°F16.8°C 44.4°F6.9°C 52% 3.8 mph E6.1 kmh E 6.0 mph9.7 kmh 29.90 in1012.5 mb 0.00 in0.0 mm 0.00 in0.0 mm 0.00 in0.0 mm
02:00 PM 62.8°F17.1°C 44.4°F6.9°C 51% 5.4 mph ENE8.7 kmh ENE 10.7 mph17.2 kmh 29.90 in1012.5 mb 0.00 in0.0 mm 0.00 in0.0 mm 0.00 in0.0 mm
02:15 PM 63.0°F17.2°C 44.0°F6.7°C 50% 3.1 mph ENE5.0 kmh ENE 8.3 mph13.4 kmh 29.89 in1012.2 mb 0.00 in0.0 mm 0.00 in0.0 mm 0.00 in0.0 mm
02:30 PM 63.1°F17.3°C 44.2°F6.8°C 50% 4.5 mph ENE7.2 kmh ENE 7.6 mph12.2 kmh 29.89 in1012.2 mb 0.00 in0.0 mm 0.00 in0.0 mm 0.00 in0.0 mm
02:45 PM 63.0°F17.2°C 44.0°F6.7°C 50% 5.4 mph ENE8.7 kmh ENE 9.8 mph15.8 kmh 29.89 in1012.2 mb 0.00 in0.0 mm 0.00 in0.0 mm 0.00 in0.0 mm
03:00 PM 63.0°F17.2°C 44.0°F6.7°C 50% 6.9 mph ENE11.1 kmh ENE 9.8 mph15.8 kmh 29.88 in1011.9 mb 0.00 in0.0 mm 0.00 in0.0 mm 0.00 in0.0 mm
03:15 PM 62.4°F16.9°C 43.0°F6.1°C 49% 6.9 mph ENE11.1 kmh ENE 9.2 mph14.8 kmh 29.88 in1011.9 mb 0.00 in0.0 mm 0.00 in0.0 mm 0.00 in0.0 mm
03:30 PM 62.2°F16.8°C 42.9°F6.1°C 49% 9.2 mph NE14.8 kmh NE 11.4 mph18.3 kmh 29.88 in1011.9 mb 0.00 in0.0 mm 0.00 in0.0 mm 0.00 in0.0 mm
03:45 PM 61.7°F16.5°C 43.9°F6.6°C 52% 7.6 mph ENE12.2 kmh ENE 11.4 mph18.3 kmh 29.89 in1012.2 mb 0.00 in0.0 mm 0.00 in0.0 mm 0.00 in0.0 mm
04:00 PM 61.2°F16.2°C 43.9°F6.6°C 53% 9.2 mph ENE14.8 kmh ENE 13.6 mph21.9 kmh 29.89 in1012.2 mb 0.00 in0.0 mm 0.00 in0.0 mm 0.00 in0.0 mm
04:15 PM 60.6°F15.9°C 43.4°F6.3°C 53% 6.9 mph ENE11.1 kmh ENE 10.7 mph17.2 kmh 29.89 in1012.2 mb 0.00 in0.0 mm 0.00 in0.0 mm 0.00 in0.0 mm
04:30 PM 60.3°F15.7°C 43.6°F6.4°C 54% 5.4 mph NE8.7 kmh NE 12.1 mph19.5 kmh 29.90 in1012.5 mb 0.00 in0.0 mm 0.00 in0.0 mm 0.00 in0.0 mm
04:45 PM 60.3°F15.7°C 43.6°F6.4°C 54% 7.6 mph NE12.2 kmh NE 9.8 mph15.8 kmh 29.90 in1012.5 mb 0.00 in0.0 mm 0.00 in0.0 mm 0.00 in0.0 mm
05:00 PM 59.4°F15.2°C 44.6°F7.0°C 58% 6.0 mph ENE9.7 kmh ENE 11.4 mph18.3 kmh 29.90 in1012.5 mb 0.00 in0.0 mm 0.00 in0.0 mm 0.00 in0.0 mm
05:15 PM 59.2°F15.1°C 44.9°F7.2°C 59% 3.8 mph ENE6.1 kmh ENE 9.8 mph15.8 kmh 29.91 in1012.9 mb 0.00 in0.0 mm 0.00 in0.0 mm 0.00 in0.0 mm
05:30 PM 58.8°F14.9°C 44.5°F6.9°C 59% 3.8 mph NE6.1 kmh NE 10.7 mph17.2 kmh 29.91 in1012.9 mb 0.00 in0.0 mm 0.00 in0.0 mm 0.00 in0.0 mm
05:45 PM 58.6°F14.8°C 44.8°F7.1°C 60% 4.5 mph NE7.2 kmh NE 6.9 mph11.1 kmh 29.90 in1012.5 mb 0.00 in0.0 mm 0.00 in0.0 mm 0.00 in0.0 mm
06:00 PM 57.9°F14.4°C 44.1°F6.7°C 60% 2.2 mph ENE3.5 kmh ENE 4.5 mph7.2 kmh 29.91 in1012.9 mb 0.00 in0.0 mm 0.00 in0.0 mm 0.00 in0.0 mm
06:15 PM 56.8°F13.8°C 43.5°F6.4°C 61% 2.2 mph NE3.5 kmh NE 6.0 mph9.7 kmh 29.92 in1013.2 mb 0.00 in0.0 mm 0.00 in0.0 mm 0.00 in0.0 mm
06:30 PM 56.5°F13.6°C 43.6°F6.4°C 62% 3.1 mph ENE5.0 kmh ENE 4.5 mph7.2 kmh 29.92 in1013.2 mb 0.00 in0.0 mm 0.00 in0.0 mm 0.00 in0.0 mm
06:45 PM 55.8°F13.2°C 43.4°F6.3°C 63% 2.2 mph NE3.5 kmh NE 5.4 mph8.7 kmh 29.93 in1013.5 mb 0.00 in0.0 mm 0.00 in0.0 mm 0.00 in0.0 mm
07:00 PM 55.2°F12.9°C 43.3°F6.3°C 64% 2.2 mph ENE3.5 kmh ENE 5.4 mph8.7 kmh 29.93 in1013.5 mb 0.00 in0.0 mm 0.00 in0.0 mm 0.00 in0.0 mm
07:15 PM 54.9°F12.7°C 42.9°F6.1°C 64% 2.2 mph ENE3.5 kmh ENE 4.5 mph7.2 kmh 29.94 in1013.9 mb 0.00 in0.0 mm 0.00 in0.0 mm 0.00 in0.0 mm
07:30 PM 54.5°F12.5°C 43.0°F6.1°C 65% 2.2 mph ENE3.5 kmh ENE 3.8 mph6.1 kmh 29.95 in1014.2 mb 0.00 in0.0 mm 0.00 in0.0 mm 0.00 in0.0 mm
07:45 PM 54.1°F12.3°C 43.0°F6.1°C 66% 4.5 mph E7.2 kmh E 5.4 mph8.7 kmh 29.95 in1014.2 mb 0.00 in0.0 mm 0.00 in0.0 mm 0.00 in0.0 mm
08:00 PM 53.6°F12.0°C 42.9°F6.1°C 67% 3.1 mph ENE5.0 kmh ENE 6.0 mph9.7 kmh 29.95 in1014.2 mb 0.00 in0.0 mm 0.00 in0.0 mm 0.00 in0.0 mm
08:15 PM 53.1°F11.7°C 42.4°F5.8°C 67% 1.6 mph E2.6 kmh E 5.4 mph8.7 kmh 29.96 in1014.6 mb 0.00 in0.0 mm 0.00 in0.0 mm 0.00 in0.0 mm
08:30 PM 52.5°F11.4°C 43.4°F6.3°C 71% 0.7 mph ENE1.1 kmh ENE 2.2 mph3.5 kmh 29.97 in1014.9 mb 0.00 in0.0 mm 0.00 in0.0 mm 0.00 in0.0 mm
08:45 PM 52.2°F11.2°C 43.1°F6.2°C 71% 0.7 mph E1.1 kmh E 3.1 mph5.0 kmh 29.97 in1014.9 mb 0.00 in0.0 mm 0.00 in0.0 mm 0.00 in0.0 mm
09:00 PM 52.0°F11.1°C 43.2°F6.2°C 72% 1.6 mph E2.6 kmh E 3.1 mph5.0 kmh 29.97 in1014.9 mb 0.00 in0.0 mm 0.00 in0.0 mm 0.00 in0.0 mm
09:15 PM 51.8°F11.0°C 43.1°F6.2°C 72% 0.7 mph E1.1 kmh E 2.2 mph3.5 kmh 29.97 in1014.9 mb 0.00 in0.0 mm 0.00 in0.0 mm 0.00 in0.0 mm
09:30 PM 51.8°F11.0°C 43.1°F6.2°C 72% 2.2 mph ENE3.5 kmh ENE 5.4 mph8.7 kmh 29.98 in1015.2 mb 0.00 in0.0 mm 0.00 in0.0 mm 0.00 in0.0 mm
09:45 PM 52.5°F11.4°C 43.0°F6.1°C 70% 4.5 mph ENE7.2 kmh ENE 7.6 mph12.2 kmh 29.98 in1015.2 mb 0.00 in0.0 mm 0.00 in0.0 mm 0.00 in0.0 mm
10:00 PM 52.7°F11.5°C 42.4°F5.8°C 68% 4.5 mph NE7.2 kmh NE 9.2 mph14.8 kmh 29.98 in1015.2 mb 0.00 in0.0 mm 0.00 in0.0 mm 0.00 in0.0 mm
10:15 PM 52.5°F11.4°C 41.9°F5.5°C 67% 7.6 mph ENE12.2 kmh ENE 13.0 mph20.9 kmh 29.98 in1015.2 mb 0.00 in0.0 mm 0.00 in0.0 mm 0.00 in0.0 mm
10:30 PM 52.2°F11.2°C 41.9°F5.5°C 68% 4.5 mph ENE7.2 kmh ENE 11.4 mph18.3 kmh 29.99 in1015.6 mb 0.00 in0.0 mm 0.00 in0.0 mm 0.00 in0.0 mm
10:45 PM 51.6°F10.9°C 42.2°F5.7°C 70% 6.0 mph ENE9.7 kmh ENE 9.8 mph15.8 kmh 29.99 in1015.6 mb 0.00 in0.0 mm 0.00 in0.0 mm 0.00 in0.0 mm
11:00 PM 51.3°F10.7°C 42.2°F5.7°C 71% 6.9 mph NE11.1 kmh NE 10.7 mph17.2 kmh 30.00 in1015.9 mb 0.00 in0.0 mm 0.00 in0.0 mm 0.00 in0.0 mm
11:15 PM 50.7°F10.4°C 42.4°F5.8°C 73% 6.9 mph ENE11.1 kmh ENE 10.7 mph17.2 kmh 30.00 in1015.9 mb 0.00 in0.0 mm 0.00 in0.0 mm 0.00 in0.0 mm
11:30 PM 50.4°F10.2°C 43.1°F6.2°C 76% 5.4 mph ENE8.7 kmh ENE 9.2 mph14.8 kmh 30.00 in1015.9 mb 0.00 in0.0 mm 0.00 in0.0 mm 0.00 in0.0 mm
11:45 PM 49.8°F9.9°C 43.2°F6.2°C 78% 5.4 mph ENE8.7 kmh ENE 9.2 mph14.8 kmh 30.01 in1016.3 mb 0.00 in0.0 mm 0.00 in0.0 mm 0.00 in0.0 mm